createdAt,value
2023-03-22T00:00:28.650Z,420.40
2023-03-22T00:01:28.664Z,231.70
2023-03-22T00:02:28.660Z,194.60
2023-03-22T00:03:28.619Z,367.80
2023-03-22T00:04:28.604Z,463.40
2023-03-22T00:05:28.577Z,403.50
2023-03-22T00:06:28.563Z,320.10
2023-03-22T00:07:28.601Z,473.90
2023-03-22T00:08:28.541Z,501.80
2023-03-22T00:09:28.541Z,170.20
2023-03-22T00:10:28.513Z,340.30
2023-03-22T00:11:28.515Z,453.90
2023-03-22T00:12:28.541Z,202.70
2023-03-22T00:13:28.493Z,311.90
2023-03-22T00:14:28.479Z,357.50
2023-03-22T00:15:28.494Z,447.40
2023-03-22T00:16:28.509Z,394.20
2023-03-22T00:17:28.496Z,386.70
2023-03-22T00:18:28.433Z,180.40
2023-03-22T00:19:28.445Z,210.70
2023-03-22T00:20:28.401Z,275.70
2023-03-22T00:21:28.409Z,408.50
2023-03-22T00:22:28.413Z,473.00
2023-03-22T00:23:28.408Z,251.80
2023-03-22T00:24:28.368Z,203.60
2023-03-22T00:25:28.357Z,176.30
2023-03-22T00:26:28.348Z,234.80
2023-03-22T00:27:28.334Z,300.90
2023-03-22T00:28:28.353Z,437.60
2023-03-22T00:29:28.315Z,453.10
2023-03-22T00:30:28.287Z,563.00
2023-03-22T00:31:28.311Z,559.10
2023-03-22T00:32:28.281Z,563.10
2023-03-22T00:33:28.327Z,474.80
2023-03-22T00:34:28.248Z,153.90
2023-03-22T00:35:28.242Z,590.50
2023-03-22T00:36:28.234Z,555.00
2023-03-22T00:37:28.219Z,565.60
2023-03-22T00:38:41.441Z,575.00
2023-03-22T00:39:29.201Z,593.90
2023-03-22T00:40:28.206Z,591.00
2023-03-22T00:41:28.187Z,294.40
2023-03-22T00:42:28.146Z,187.30
2023-03-22T00:43:28.186Z,256.70
2023-03-22T00:44:28.132Z,344.40
2023-03-22T00:45:28.137Z,314.00
2023-03-22T00:46:28.139Z,252.70
2023-03-22T00:47:28.129Z,245.60
2023-03-22T00:48:28.129Z,291.80
2023-03-22T00:49:28.106Z,274.40
2023-03-22T00:50:28.077Z,564.50
2023-03-22T00:51:28.065Z,203.50
2023-03-22T00:52:28.043Z,262.00
2023-03-22T00:53:28.075Z,558.50
2023-03-22T00:54:28.042Z,395.50
2023-03-22T00:55:28.097Z,201.60
2023-03-22T00:56:28.005Z,243.00
2023-03-22T00:57:27.990Z,458.00
2023-03-22T00:58:28.009Z,432.70
2023-03-22T00:59:27.977Z,243.20
2023-03-22T01:00:27.966Z,457.10
2023-03-22T01:01:28.006Z,383.80
2023-03-22T01:02:27.937Z,390.30
2023-03-22T01:03:28.009Z,379.70
2023-03-22T01:04:27.927Z,208.10
2023-03-22T01:05:27.909Z,197.40
2023-03-22T01:06:27.897Z,517.00
2023-03-22T01:07:27.900Z,215.80
2023-03-22T01:08:27.909Z,186.40
2023-03-22T01:09:27.901Z,201.50
2023-03-22T01:10:27.857Z,498.70
2023-03-22T01:11:27.840Z,374.70
2023-03-22T01:12:27.853Z,332.90
2023-03-22T01:13:27.839Z,584.30
2023-03-22T01:14:27.832Z,617.80
2023-03-22T01:15:27.782Z,518.80
2023-03-22T01:16:27.859Z,257.20
2023-03-22T01:17:27.790Z,231.60
2023-03-22T01:18:27.766Z,221.90
2023-03-22T01:19:27.793Z,398.90
2023-03-22T01:20:27.732Z,387.10
2023-03-22T01:21:27.729Z,248.30
2023-03-22T01:22:27.710Z,568.00
2023-03-22T01:23:27.692Z,240.70
2023-03-22T01:24:27.724Z,569.00
2023-03-22T01:25:27.681Z,570.00
2023-03-22T01:26:27.678Z,589.30
2023-03-22T01:27:27.654Z,631.00
2023-03-22T01:28:27.672Z,615.90
2023-03-22T01:29:27.666Z,549.70
2023-03-22T01:30:27.658Z,197.00
2023-03-22T01:31:27.626Z,158.60
2023-03-22T01:32:27.595Z,230.50
2023-03-22T01:33:27.587Z,494.10
2023-03-22T01:34:27.607Z,227.50
2023-03-22T01:35:27.612Z,372.60
2023-03-22T01:36:27.540Z,419.60
2023-03-22T01:37:27.560Z,535.30
2023-03-22T01:38:27.536Z,504.60
2023-03-22T01:39:27.550Z,508.80
2023-03-22T01:40:27.503Z,504.60
2023-03-22T01:41:27.520Z,569.00
2023-03-22T01:42:27.498Z,614.20
2023-03-22T01:43:27.483Z,564.00
2023-03-22T01:44:27.523Z,371.30
2023-03-22T01:45:27.460Z,160.10
2023-03-22T01:46:27.448Z,163.10
2023-03-22T01:47:27.424Z,159.60
2023-03-22T01:48:27.428Z,431.30
2023-03-22T01:49:27.468Z,235.60
2023-03-22T01:50:27.394Z,271.90
2023-03-22T01:51:27.399Z,480.50
2023-03-22T01:52:27.371Z,460.90
2023-03-22T01:53:27.441Z,448.30
2023-03-22T01:54:27.385Z,370.00
2023-03-22T01:55:27.384Z,467.50
2023-03-22T01:56:27.339Z,458.10
2023-03-22T01:57:27.323Z,356.60
2023-03-22T01:58:27.313Z,350.60
2023-03-22T01:59:27.339Z,365.00
2023-03-22T02:00:27.286Z,423.70
2023-03-22T02:01:27.371Z,453.10
2023-03-22T02:02:27.297Z,446.60
2023-03-22T02:03:27.239Z,574.40
2023-03-22T02:04:27.316Z,781.30
2023-03-22T02:05:27.262Z,732.40
2023-03-22T02:06:27.235Z,716.00
2023-03-22T02:07:27.221Z,822.70
2023-03-22T02:08:27.205Z,772.30
2023-03-22T02:09:27.180Z,685.50
2023-03-22T02:10:27.230Z,722.00
2023-03-22T02:11:27.181Z,719.00
2023-03-22T02:12:27.140Z,705.80
2023-03-22T02:13:27.132Z,694.70
2023-03-22T02:14:27.502Z,690.70
2023-03-22T02:15:27.153Z,794.20
2023-03-22T02:16:27.118Z,851.00
2023-03-22T02:17:27.106Z,794.60
2023-03-22T02:18:27.078Z,779.80
2023-03-22T02:19:27.069Z,767.00
2023-03-22T02:20:27.091Z,763.30
2023-03-22T02:21:27.038Z,764.70
2023-03-22T02:22:27.044Z,771.70
2023-03-22T02:23:27.016Z,763.20
2023-03-22T02:24:27.025Z,769.50
2023-03-22T02:25:27.058Z,771.70
2023-03-22T02:26:26.993Z,784.30
2023-03-22T02:27:26.990Z,788.70
2023-03-22T02:28:26.985Z,780.70
2023-03-22T02:29:26.990Z,777.60
2023-03-22T02:30:26.987Z,767.80
2023-03-22T02:31:27.000Z,784.00
2023-03-22T02:32:26.967Z,758.90
2023-03-22T02:33:26.911Z,844.10
2023-03-22T02:34:26.915Z,871.60
2023-03-22T02:35:27.031Z,810.30
2023-03-22T02:36:26.888Z,516.10
2023-03-22T02:37:26.862Z,115.00
2023-03-22T02:38:26.886Z,875.00
2023-03-22T02:39:26.889Z,881.80
2023-03-22T02:40:26.915Z,868.90
2023-03-22T02:41:26.828Z,855.10
2023-03-22T02:42:26.819Z,847.70
2023-03-22T02:43:26.800Z,850.00
2023-03-22T02:44:26.861Z,842.20
2023-03-22T02:45:26.816Z,835.00
2023-03-22T02:46:26.827Z,839.50
2023-03-22T02:47:26.755Z,850.40
2023-03-22T02:48:26.820Z,854.90
2023-03-22T02:49:26.757Z,853.10
2023-03-22T02:50:26.746Z,863.80
2023-03-22T02:51:26.717Z,884.80
2023-03-22T02:52:26.690Z,903.90
2023-03-22T02:53:26.696Z,920.80
2023-03-22T02:54:26.766Z,899.00
2023-03-22T02:55:26.707Z,862.40
2023-03-22T02:56:26.651Z,855.40
2023-03-22T02:57:26.640Z,838.60
2023-03-22T02:58:26.655Z,845.50
2023-03-22T02:59:26.675Z,683.40
2023-03-22T03:00:26.652Z,176.40
2023-03-22T03:01:26.591Z,157.70
2023-03-22T03:02:26.677Z,844.00
2023-03-22T03:03:26.568Z,866.50
2023-03-22T03:04:26.568Z,900.50
2023-03-22T03:05:26.596Z,905.20
2023-03-22T03:06:26.559Z,906.80
2023-03-22T03:07:26.539Z,880.80
2023-03-22T03:08:26.557Z,893.40
2023-03-22T03:09:26.516Z,884.30
2023-03-22T03:10:26.590Z,873.00
2023-03-22T03:11:26.487Z,873.50
2023-03-22T03:12:26.501Z,854.00
2023-03-22T03:13:26.464Z,853.70
2023-03-22T03:14:26.533Z,858.70
2023-03-22T03:15:26.486Z,856.10
2023-03-22T03:16:26.558Z,848.20
2023-03-22T03:17:26.444Z,845.90
2023-03-22T03:18:26.398Z,836.70
2023-03-22T03:19:26.430Z,841.30
2023-03-22T03:20:26.416Z,857.40
2023-03-22T03:21:26.407Z,818.80
2023-03-22T03:22:26.400Z,809.40
2023-03-22T03:23:26.393Z,815.60
2023-03-22T03:24:26.328Z,809.10
2023-03-22T03:25:26.366Z,804.80
2023-03-22T03:26:26.323Z,774.30
2023-03-22T03:27:26.301Z,782.90
2023-03-22T03:28:26.295Z,786.90
2023-03-22T03:29:26.283Z,779.50
2023-03-22T03:30:26.324Z,419.20
2023-03-22T03:31:26.400Z,517.30
2023-03-22T03:32:26.271Z,429.40
2023-03-22T03:33:26.285Z,415.50
2023-03-22T03:34:26.251Z,420.00
2023-03-22T03:35:26.244Z,636.00
2023-03-22T03:36:26.269Z,580.20
2023-03-22T03:37:26.217Z,490.20
2023-03-22T03:38:26.177Z,357.90
2023-03-22T03:39:26.202Z,193.40
2023-03-22T03:40:26.159Z,128.90
2023-03-22T03:41:26.187Z,292.00
2023-03-22T03:42:26.167Z,883.10
2023-03-22T03:43:26.146Z,868.80
2023-03-22T03:44:26.195Z,845.90
2023-03-22T03:45:26.175Z,812.40
2023-03-22T03:46:26.143Z,802.00
2023-03-22T03:47:26.096Z,780.90
2023-03-22T03:48:26.123Z,783.70
2023-03-22T03:49:26.058Z,745.70
2023-03-22T03:50:26.076Z,770.50
2023-03-22T03:51:26.093Z,787.10
2023-03-22T03:52:26.033Z,805.70
2023-03-22T03:53:26.017Z,817.70
2023-03-22T03:54:26.023Z,854.20
2023-03-22T03:55:25.999Z,864.50
2023-03-22T03:56:26.038Z,860.00
2023-03-22T03:57:25.955Z,860.40
2023-03-22T03:58:25.977Z,861.50
2023-03-22T03:59:25.980Z,878.20
2023-03-22T04:00:25.949Z,887.80
2023-03-22T04:01:25.952Z,588.00
2023-03-22T04:02:25.996Z,298.10
2023-03-22T04:03:25.906Z,321.50
2023-03-22T04:04:25.982Z,323.30
2023-03-22T04:05:25.909Z,311.10
2023-03-22T04:06:25.919Z,349.90
2023-03-22T04:07:25.863Z,463.80
2023-03-22T04:08:25.833Z,594.80
2023-03-22T04:09:25.820Z,588.70
2023-03-22T04:10:25.820Z,586.20
2023-03-22T04:11:25.835Z,313.80
2023-03-22T04:12:25.828Z,167.40
2023-03-22T04:13:25.779Z,93.00
2023-03-22T04:14:25.796Z,334.50
2023-03-22T04:15:25.754Z,908.80
2023-03-22T04:16:25.842Z,902.60
2023-03-22T04:17:25.744Z,908.50
2023-03-22T04:18:25.740Z,909.10
2023-03-22T04:19:25.712Z,910.40
2023-03-22T04:20:25.698Z,905.40
2023-03-22T04:21:25.740Z,891.40
2023-03-22T04:22:25.689Z,901.90
2023-03-22T04:23:25.704Z,919.70
2023-03-22T04:24:25.671Z,910.40
2023-03-22T04:25:25.639Z,894.30
2023-03-22T04:26:26.828Z,902.30
2023-03-22T04:27:25.617Z,911.10
2023-03-22T04:28:25.603Z,916.40
2023-03-22T04:29:25.605Z,919.70
2023-03-22T04:30:25.590Z,941.90
2023-03-22T04:31:25.715Z,948.60
2023-03-22T04:32:25.560Z,944.40
2023-03-22T04:33:25.555Z,939.60
2023-03-22T04:34:25.556Z,933.00
2023-03-22T04:35:25.580Z,873.80
2023-03-22T04:36:25.559Z,780.00
2023-03-22T04:37:25.510Z,640.20
2023-03-22T04:38:25.489Z,602.60
2023-03-22T04:39:25.485Z,626.70
2023-03-22T04:40:25.479Z,618.90
2023-03-22T04:41:25.492Z,593.00
2023-03-22T04:42:25.491Z,592.90
2023-03-22T04:43:25.434Z,628.60
2023-03-22T04:44:25.422Z,600.00
2023-03-22T04:45:25.413Z,574.00
2023-03-22T04:46:25.467Z,545.70
2023-03-22T04:47:25.393Z,541.50
2023-03-22T04:48:25.379Z,351.50
2023-03-22T04:49:25.371Z,86.40
2023-03-22T04:50:25.372Z,104.90
2023-03-22T04:51:25.370Z,621.60
2023-03-22T04:52:25.351Z,868.10
2023-03-22T04:53:25.323Z,879.70
2023-03-22T04:54:25.317Z,888.50
2023-03-22T04:55:25.302Z,864.00
2023-03-22T04:56:25.337Z,856.40
2023-03-22T04:57:25.277Z,847.80
2023-03-22T04:58:25.258Z,848.50
2023-03-22T04:59:25.249Z,833.30
2023-03-22T05:00:25.227Z,829.70
2023-03-22T05:01:25.283Z,824.10
2023-03-22T05:02:25.282Z,763.80
2023-03-22T05:03:25.192Z,315.20
2023-03-22T05:04:25.187Z,653.60
2023-03-22T05:05:25.193Z,801.20
2023-03-22T05:06:25.217Z,789.10
2023-03-22T05:07:25.158Z,710.70
2023-03-22T05:08:25.170Z,728.00
2023-03-22T05:09:25.136Z,645.80
2023-03-22T05:10:25.131Z,625.20
2023-03-22T05:11:25.153Z,628.10
2023-03-22T05:12:25.114Z,615.60
2023-03-22T05:13:25.090Z,610.90
2023-03-22T05:14:25.095Z,605.00
2023-03-22T05:15:25.081Z,592.80
2023-03-22T05:16:25.118Z,496.10
2023-03-22T05:17:25.070Z,305.00
2023-03-22T05:18:25.040Z,290.20
2023-03-22T05:19:25.014Z,434.50
2023-03-22T05:20:25.011Z,410.40
2023-03-22T05:21:25.024Z,236.70
2023-03-22T05:22:24.985Z,224.30
2023-03-22T05:23:24.976Z,224.30
2023-03-22T05:24:24.993Z,227.30
2023-03-22T05:25:24.950Z,218.90
2023-03-22T05:26:24.975Z,225.20
2023-03-22T05:27:24.947Z,189.80
2023-03-22T05:28:24.951Z,340.40
2023-03-22T05:29:24.923Z,295.00
2023-03-22T05:30:24.913Z,88.50
2023-03-22T05:31:24.948Z,49.00
2023-03-22T05:32:24.870Z,387.10
2023-03-22T05:33:24.869Z,487.10
2023-03-22T05:34:24.854Z,489.10
2023-03-22T05:35:24.897Z,624.00
2023-03-22T05:36:24.866Z,602.80
2023-03-22T05:37:24.832Z,609.70
2023-03-22T05:38:24.822Z,612.50
2023-03-22T05:39:24.820Z,614.90
2023-03-22T05:40:24.801Z,637.60
2023-03-22T05:41:24.823Z,534.10
2023-03-22T05:42:24.767Z,327.00
2023-03-22T05:43:24.763Z,368.20
2023-03-22T05:44:24.735Z,405.90
2023-03-22T05:45:24.722Z,395.40
2023-03-22T05:46:24.805Z,287.10
2023-03-22T05:47:24.708Z,78.90
2023-03-22T05:48:24.753Z,342.30
2023-03-22T05:49:24.676Z,387.90
2023-03-22T05:50:24.698Z,393.10
2023-03-22T05:51:24.713Z,384.40
2023-03-22T05:52:24.665Z,343.10
2023-03-22T05:53:24.647Z,361.20
2023-03-22T05:54:24.632Z,447.70
2023-03-22T05:55:24.644Z,501.10
2023-03-22T05:56:24.887Z,510.30
2023-03-22T05:57:24.656Z,518.50
2023-03-22T05:58:24.636Z,465.90
2023-03-22T05:59:24.613Z,483.60
2023-03-22T06:00:24.587Z,54.40
2023-03-22T06:01:24.619Z,389.20
2023-03-22T06:02:24.575Z,568.00
2023-03-22T06:03:24.590Z,739.60
2023-03-22T06:04:24.523Z,634.20
2023-03-22T06:05:24.494Z,601.90
2023-03-22T06:06:24.546Z,554.30
2023-03-22T06:07:24.498Z,408.10
2023-03-22T06:08:26.513Z,430.70
2023-03-22T06:09:24.477Z,439.60
2023-03-22T06:10:24.467Z,502.20
2023-03-22T06:11:24.521Z,404.10
2023-03-22T06:12:24.655Z,81.20
2023-03-22T06:13:24.492Z,223.00
2023-03-22T06:14:24.447Z,78.60
2023-03-22T06:15:24.446Z,399.80
2023-03-22T06:16:24.471Z,420.00
2023-03-22T06:17:24.429Z,126.00
2023-03-22T06:18:24.395Z,190.70
2023-03-22T06:19:24.393Z,62.90
2023-03-22T06:20:24.370Z,63.50
2023-03-22T06:21:24.403Z,81.90
2023-03-22T06:22:24.349Z,144.70
2023-03-22T06:23:24.329Z,180.60
2023-03-22T06:24:24.324Z,208.40
2023-03-22T06:25:24.321Z,101.40
2023-03-22T06:26:24.406Z,62.80
2023-03-22T06:27:24.281Z,130.50
2023-03-22T06:28:24.268Z,170.30
2023-03-22T06:29:24.263Z,198.50
2023-03-22T06:30:24.283Z,248.30
2023-03-22T06:31:24.286Z,219.70
2023-03-22T06:32:24.206Z,218.60
2023-03-22T06:33:24.196Z,216.80
2023-03-22T06:34:24.170Z,218.20
2023-03-22T06:35:24.236Z,303.30
2023-03-22T06:36:24.222Z,210.10
2023-03-22T06:37:24.153Z,244.30
2023-03-22T06:38:24.133Z,263.00
2023-03-22T06:39:24.154Z,387.70
2023-03-22T06:40:24.126Z,656.60
2023-03-22T06:41:24.142Z,669.10
2023-03-22T06:42:24.090Z,334.40
2023-03-22T06:43:24.110Z,270.40
2023-03-22T06:44:24.078Z,880.20
2023-03-22T06:45:24.098Z,974.80
2023-03-22T06:46:24.157Z,595.00
2023-03-22T06:47:24.055Z,242.60
2023-03-22T06:48:24.080Z,505.60
2023-03-22T06:49:24.033Z,500.90
2023-03-22T06:50:24.012Z,201.70
2023-03-22T06:51:24.056Z,287.40
2023-03-22T06:52:23.998Z,487.80
2023-03-22T06:53:23.996Z,571.30
2023-03-22T06:54:23.962Z,428.00
2023-03-22T06:55:23.964Z,204.50
2023-03-22T06:56:23.978Z,256.60
2023-03-22T06:57:23.938Z,492.00
2023-03-22T06:58:23.921Z,317.50
2023-03-22T06:59:23.936Z,275.50
2023-03-22T07:00:23.908Z,709.20
2023-03-22T07:01:24.041Z,1999.90
2023-03-22T07:02:23.851Z,286.50
2023-03-22T07:03:23.933Z,459.10
2023-03-22T07:04:23.863Z,151.00
2023-03-22T07:05:23.827Z,1999.90
2023-03-22T07:06:23.861Z,315.40
2023-03-22T07:07:23.807Z,125.20
2023-03-22T07:08:23.803Z,1999.90
2023-03-22T07:09:23.784Z,168.30
2023-03-22T07:10:23.803Z,1999.90
2023-03-22T07:11:23.813Z,1999.90
2023-03-22T07:12:23.754Z,379.00
2023-03-22T07:13:23.754Z,363.00
2023-03-22T07:14:23.708Z,1999.90
2023-03-22T07:15:23.728Z,1999.90
2023-03-22T07:16:23.874Z,347.30
2023-03-22T07:17:23.717Z,111.90
2023-03-22T07:18:23.694Z,1999.90
2023-03-22T07:19:23.678Z,319.20
2023-03-22T07:20:23.690Z,205.30
2023-03-22T07:21:23.683Z,1999.90
2023-03-22T07:22:23.682Z,1999.90
2023-03-22T07:23:23.640Z,288.80
2023-03-22T07:24:23.630Z,197.50
2023-03-22T07:25:23.633Z,1999.90
2023-03-22T07:26:23.646Z,1999.90
2023-03-22T07:27:23.616Z,1999.90
2023-03-22T07:28:23.586Z,1999.90
2023-03-22T07:29:23.578Z,1999.90
2023-03-22T07:30:23.587Z,1999.90
2023-03-22T07:31:23.567Z,262.00
2023-03-22T07:32:23.622Z,326.60
2023-03-22T07:33:23.550Z,1999.90
2023-03-22T07:34:23.529Z,1999.90
2023-03-22T07:35:25.647Z,1999.90
2023-03-22T07:36:23.527Z,1999.90
2023-03-22T07:37:23.491Z,1004.40
2023-03-22T07:38:23.476Z,1999.90
2023-03-22T07:39:23.450Z,1999.90
2023-03-22T07:40:23.429Z,1999.90
2023-03-22T07:41:23.519Z,819.30
2023-03-22T07:42:23.419Z,1999.90
2023-03-22T07:43:23.432Z,1999.90
2023-03-22T07:44:23.383Z,1307.10
2023-03-22T07:45:23.647Z,1057.80
2023-03-22T07:46:23.539Z,1999.90
2023-03-22T07:47:38.060Z,1999.90
2023-03-22T07:48:24.498Z,1999.90
2023-03-22T07:49:23.370Z,1999.90
2023-03-22T07:50:23.346Z,1999.90
2023-03-22T07:51:23.376Z,1999.90
2023-03-22T07:52:23.330Z,1999.90
2023-03-22T07:53:23.303Z,1999.90
2023-03-22T07:54:33.461Z,1999.90
2023-03-22T07:55:24.306Z,1999.90
2023-03-22T07:56:23.318Z,1999.90
2023-03-22T07:57:23.279Z,1999.90
2023-03-22T07:58:23.241Z,1999.90
2023-03-22T07:59:23.244Z,1999.90
2023-03-22T08:00:23.369Z,1999.90
2023-03-22T08:01:23.232Z,1999.90
2023-03-22T08:02:23.263Z,1999.90
2023-03-22T08:03:23.304Z,1999.90
2023-03-22T08:04:23.211Z,1999.90
2023-03-22T08:05:23.166Z,1999.90
2023-03-22T08:06:23.179Z,1999.90
2023-03-22T08:07:23.160Z,1999.90
2023-03-22T08:08:23.136Z,1999.90
2023-03-22T08:09:23.136Z,1999.90
2023-03-22T08:10:23.121Z,1999.90
2023-03-22T08:11:23.135Z,480.70
2023-03-22T08:12:23.240Z,1281.80
2023-03-22T08:13:23.086Z,1263.30
2023-03-22T08:14:35.462Z,1121.30
2023-03-22T08:15:24.051Z,1275.20
2023-03-22T08:16:23.108Z,513.90
2023-03-22T08:17:23.042Z,28.00
2023-03-22T08:18:23.019Z,17.00
2023-03-22T08:19:23.010Z,16.60
2023-03-22T08:20:23.069Z,16.00
2023-03-22T08:21:23.081Z,16.90
2023-03-22T08:22:22.961Z,14.80
2023-03-22T08:23:38.612Z,16.50
2023-03-22T08:24:23.952Z,17.20
2023-03-22T08:25:22.954Z,16.30
2023-03-22T08:26:22.998Z,16.60
2023-03-22T08:27:22.933Z,14.20
2023-03-22T08:28:22.901Z,14.70
2023-03-22T08:29:22.925Z,15.80
2023-03-22T08:30:22.870Z,17.20
2023-03-22T08:31:22.965Z,15.80
2023-03-22T08:32:22.844Z,15.00
2023-03-22T08:33:22.860Z,13.40
2023-03-22T08:34:22.857Z,13.70
2023-03-22T08:35:22.849Z,14.60
2023-03-22T08:36:22.875Z,14.00
2023-03-22T08:37:22.797Z,11.80
2023-03-22T08:38:22.794Z,10.60
2023-03-22T08:39:23.669Z,13.00
2023-03-22T08:40:22.819Z,13.60
2023-03-22T08:41:22.789Z,12.60
2023-03-22T08:42:22.729Z,16.30
2023-03-22T08:43:22.765Z,15.40
2023-03-22T08:44:22.730Z,14.20
2023-03-22T08:45:22.725Z,14.90
2023-03-22T08:46:22.773Z,16.40
2023-03-22T08:47:22.694Z,13.60
2023-03-22T08:48:22.810Z,16.10
2023-03-22T08:49:22.686Z,16.30
2023-03-22T08:50:22.667Z,15.60
2023-03-22T08:51:22.669Z,14.10
2023-03-22T08:52:22.678Z,11.20
2023-03-22T08:53:22.628Z,12.10
2023-03-22T08:54:22.625Z,11.40
2023-03-22T08:55:22.612Z,11.30
2023-03-22T08:56:22.590Z,10.30
2023-03-22T08:57:22.611Z,9.40
2023-03-22T08:58:22.551Z,9.60
2023-03-22T08:59:22.535Z,9.00
2023-03-22T09:00:22.528Z,9.00
2023-03-22T09:01:22.588Z,8.80
2023-03-22T09:02:22.614Z,8.20
2023-03-22T09:03:22.523Z,7.90
2023-03-22T09:04:22.540Z,8.30
2023-03-22T09:05:22.468Z,8.00
2023-03-22T09:06:22.486Z,8.30
2023-03-22T09:07:22.508Z,7.80
2023-03-22T09:08:22.453Z,8.20
2023-03-22T09:09:22.458Z,7.90
2023-03-22T09:10:22.496Z,8.30
2023-03-22T09:11:22.453Z,7.90
2023-03-22T09:12:22.545Z,8.50
2023-03-22T09:13:22.421Z,7.90
2023-03-22T09:14:22.417Z,8.30
2023-03-22T09:15:22.375Z,8.40
2023-03-22T09:16:22.411Z,7.90
2023-03-22T09:17:22.600Z,8.40
2023-03-22T09:18:22.361Z,7.90
2023-03-22T09:19:22.326Z,8.10
2023-03-22T09:20:22.344Z,8.70
2023-03-22T09:21:22.310Z,8.30
2023-03-22T09:22:22.306Z,9.40
2023-03-22T09:23:22.288Z,8.30
2023-03-22T09:24:22.260Z,9.10
2023-03-22T09:25:22.263Z,7.60
2023-03-22T09:26:22.308Z,8.40
2023-03-22T09:27:22.280Z,8.00
2023-03-22T09:28:22.254Z,8.40
2023-03-22T09:29:22.213Z,7.90
2023-03-22T09:30:22.182Z,7.80
2023-03-22T09:31:22.259Z,8.30
2023-03-22T09:32:22.219Z,8.50
2023-03-22T09:33:22.159Z,8.10
2023-03-22T09:34:22.175Z,8.10
2023-03-22T09:35:22.198Z,7.90
2023-03-22T09:36:22.166Z,8.60
2023-03-22T09:37:22.155Z,8.40
2023-03-22T09:38:22.118Z,8.80
2023-03-22T09:39:22.119Z,8.30
2023-03-22T09:40:22.098Z,8.20
2023-03-22T09:41:22.095Z,8.50
2023-03-22T09:42:22.123Z,9.00
2023-03-22T09:43:22.088Z,9.10
2023-03-22T09:44:22.037Z,8.30
2023-03-22T09:45:22.065Z,8.70
2023-03-22T09:46:22.070Z,8.90
2023-03-22T09:47:22.073Z,8.20
2023-03-22T09:48:22.062Z,8.30
2023-03-22T09:49:21.997Z,9.20
2023-03-22T09:50:22.093Z,8.60
2023-03-22T09:51:21.952Z,8.60
2023-03-22T09:52:22.068Z,8.00
2023-03-22T09:53:21.950Z,7.90
2023-03-22T09:54:21.971Z,8.10
2023-03-22T09:55:21.931Z,8.40
2023-03-22T09:56:21.923Z,9.10
2023-03-22T09:57:21.925Z,10.00
2023-03-22T09:58:21.878Z,9.80
2023-03-22T09:59:21.876Z,10.10
2023-03-22T10:00:22.047Z,9.90
2023-03-22T10:01:22.010Z,8.60
2023-03-22T10:02:21.949Z,9.80
2023-03-22T10:03:21.840Z,9.90
2023-03-22T10:04:21.866Z,10.40
2023-03-22T10:05:21.808Z,10.20
2023-03-22T10:06:21.810Z,10.10
2023-03-22T10:07:21.847Z,9.70
2023-03-22T10:08:21.763Z,9.20
2023-03-22T10:09:21.764Z,9.20
2023-03-22T10:10:21.757Z,8.90
2023-03-22T10:11:21.755Z,8.70
2023-03-22T10:12:21.762Z,8.40
2023-03-22T10:13:21.727Z,8.00
2023-03-22T10:14:21.764Z,7.90
2023-03-22T10:15:21.734Z,7.50
2023-03-22T10:16:21.735Z,7.60
2023-03-22T10:17:21.708Z,8.70
2023-03-22T10:18:21.675Z,9.40
2023-03-22T10:19:21.644Z,8.80
2023-03-22T10:20:21.669Z,9.80
2023-03-22T10:21:21.617Z,9.50
2023-03-22T10:22:21.659Z,9.30
2023-03-22T10:23:21.617Z,9.50
2023-03-22T10:24:21.623Z,9.10
2023-03-22T10:25:21.648Z,8.70
2023-03-22T10:26:21.570Z,9.00
2023-03-22T10:27:21.618Z,8.70
2023-03-22T10:28:21.541Z,8.50
2023-03-22T10:29:21.557Z,7.50
2023-03-22T10:30:21.554Z,7.30
2023-03-22T10:31:21.594Z,7.60
2023-03-22T10:32:21.549Z,7.40
2023-03-22T10:33:21.518Z,7.30
2023-03-22T10:34:21.584Z,7.90
2023-03-22T10:35:21.572Z,7.70
2023-03-22T10:36:21.463Z,7.40
2023-03-22T10:37:21.514Z,7.40
2023-03-22T10:38:21.473Z,7.50
2023-03-22T10:39:21.447Z,7.30
2023-03-22T10:40:21.415Z,7.30
2023-03-22T10:41:21.398Z,7.30
2023-03-22T10:42:21.415Z,7.90
2023-03-22T10:43:21.408Z,7.30
2023-03-22T10:44:21.405Z,6.80
2023-03-22T10:45:21.397Z,6.90
2023-03-22T10:46:21.429Z,7.50
2023-03-22T10:47:21.345Z,8.10
2023-03-22T10:48:21.378Z,7.30
2023-03-22T10:49:21.377Z,7.10
2023-03-22T10:50:21.313Z,7.30
2023-03-22T10:51:21.329Z,7.50
2023-03-22T10:52:21.311Z,7.50
2023-03-22T10:53:21.318Z,7.50
2023-03-22T10:54:21.297Z,7.70
2023-03-22T10:55:21.256Z,7.40
2023-03-22T10:56:21.256Z,7.50
2023-03-22T10:57:21.236Z,6.40
2023-03-22T10:58:21.277Z,6.70
2023-03-22T10:59:21.200Z,6.90
2023-03-22T11:00:21.209Z,7.00
2023-03-22T11:01:21.295Z,6.90
2023-03-22T11:02:21.261Z,8.70
2023-03-22T11:03:21.194Z,8.60
2023-03-22T11:04:21.168Z,7.20
2023-03-22T11:05:21.145Z,6.60
2023-03-22T11:06:21.153Z,7.30
2023-03-22T11:07:21.110Z,7.90
2023-03-22T11:08:21.156Z,8.30
2023-03-22T11:09:21.088Z,8.20
2023-03-22T11:10:21.148Z,7.90
2023-03-22T11:11:21.080Z,8.40
2023-03-22T11:12:21.081Z,9.10
2023-03-22T11:13:21.120Z,10.20
2023-03-22T11:14:21.073Z,11.10
2023-03-22T11:15:21.045Z,10.10
2023-03-22T11:16:21.085Z,10.90
2023-03-22T11:17:21.005Z,10.40
2023-03-22T11:18:21.049Z,9.70
2023-03-22T11:19:20.993Z,9.30
2023-03-22T11:20:21.037Z,9.40
2023-03-22T11:21:20.961Z,8.50
2023-03-22T11:22:20.980Z,8.80
2023-03-22T11:23:20.980Z,8.00
2023-03-22T11:24:20.929Z,7.70
2023-03-22T11:25:20.957Z,7.80
2023-03-22T11:26:20.922Z,8.10
2023-03-22T11:27:20.897Z,8.50
2023-03-22T11:28:20.902Z,9.10
2023-03-22T11:29:20.867Z,9.20
2023-03-22T11:30:20.853Z,9.40
2023-03-22T11:31:20.917Z,9.40
2023-03-22T11:32:20.953Z,8.10
2023-03-22T11:33:20.888Z,7.10
2023-03-22T11:34:20.831Z,6.80
2023-03-22T11:35:20.852Z,7.30
2023-03-22T11:36:20.812Z,7.00
2023-03-22T11:37:20.778Z,7.00
2023-03-22T11:38:20.818Z,7.10
2023-03-22T11:39:20.761Z,7.60
2023-03-22T11:40:20.741Z,8.40
2023-03-22T11:41:20.733Z,8.40
2023-03-22T11:42:20.735Z,7.50
2023-03-22T11:43:20.726Z,8.20
2023-03-22T11:44:20.775Z,7.30
2023-03-22T11:45:20.703Z,7.70
2023-03-22T11:46:20.844Z,7.30
2023-03-22T11:47:20.696Z,7.30
2023-03-22T11:48:20.784Z,7.50
2023-03-22T11:49:20.706Z,7.70
2023-03-22T11:50:20.664Z,8.30
2023-03-22T11:51:21.430Z,8.10
2023-03-22T11:52:20.651Z,8.40
2023-03-22T11:53:20.628Z,8.70
2023-03-22T11:54:20.641Z,7.90
2023-03-22T11:55:20.607Z,8.30
2023-03-22T11:56:20.565Z,7.40
2023-03-22T11:57:20.572Z,6.80
2023-03-22T11:58:21.498Z,6.30
2023-03-22T11:59:20.643Z,6.10
2023-03-22T12:00:20.539Z,6.20
2023-03-22T12:01:20.545Z,6.70
2023-03-22T12:02:20.580Z,6.00
2023-03-22T12:03:20.622Z,5.90
2023-03-22T12:04:20.727Z,6.70
2023-03-22T12:05:20.561Z,6.40
2023-03-22T12:06:20.526Z,6.10
2023-03-22T12:07:20.444Z,5.90
2023-03-22T12:08:20.457Z,5.90
2023-03-22T12:09:20.486Z,5.80
2023-03-22T12:10:20.414Z,6.20
2023-03-22T12:11:20.387Z,6.00
2023-03-22T12:12:20.391Z,5.80
2023-03-22T12:13:20.391Z,6.30
2023-03-22T12:14:20.427Z,6.20
2023-03-22T12:15:20.433Z,6.90
2023-03-22T12:16:21.164Z,6.70
2023-03-22T12:17:20.344Z,6.50
2023-03-22T12:18:20.368Z,7.10
2023-03-22T12:19:20.369Z,6.80
2023-03-22T12:20:20.290Z,7.50
2023-03-22T12:21:20.307Z,7.60
2023-03-22T12:22:20.299Z,7.10
2023-03-22T12:23:20.273Z,6.60
2023-03-22T12:24:20.288Z,6.80
2023-03-22T12:25:20.237Z,6.60
2023-03-22T12:26:20.225Z,5.90
2023-03-22T12:27:20.220Z,6.10
2023-03-22T12:28:20.237Z,7.30
2023-03-22T12:29:20.237Z,6.50
2023-03-22T12:30:20.204Z,6.70
2023-03-22T12:31:20.214Z,7.30
2023-03-22T12:32:20.187Z,8.10
2023-03-22T12:33:20.229Z,7.70
2023-03-22T12:34:20.190Z,6.80
2023-03-22T12:35:20.154Z,7.20
2023-03-22T12:36:20.155Z,8.80
2023-03-22T12:37:20.141Z,8.50
2023-03-22T12:38:20.112Z,12.80
2023-03-22T12:39:20.130Z,6.90
2023-03-22T12:40:20.215Z,9.10
2023-03-22T12:41:20.100Z,9.20
2023-03-22T12:42:20.078Z,8.10